createdAt,value
2022-08-20T00:02:13.244Z,100900.81
2022-08-20T00:05:02.695Z,100901.78
2022-08-20T00:07:52.736Z,100896.31
2022-08-20T00:10:43.977Z,100900.69
2022-08-20T00:13:41.844Z,100897.53
2022-08-20T00:16:36.054Z,100903.91
2022-08-20T00:19:28.600Z,100906.91
2022-08-20T00:22:18.306Z,100903.47
2022-08-20T00:25:09.663Z,100922.81
2022-08-20T00:28:00.288Z,100912.13
2022-08-20T00:30:50.189Z,100914.25
2022-08-20T00:33:42.146Z,100914.53
2022-08-20T00:36:32.330Z,100907.56
2022-08-20T00:39:22.488Z,100905.78
2022-08-20T00:42:12.736Z,100895.59
2022-08-20T00:45:02.884Z,100900.22
2022-08-20T00:47:52.665Z,100885.97
2022-08-20T00:50:42.565Z,100885.88
2022-08-20T00:53:33.105Z,100889.66
2022-08-20T00:56:22.947Z,100887.66
2022-08-20T00:59:17.850Z,100891.00
2022-08-20T01:02:11.919Z,100891.94
2022-08-20T01:05:00.993Z,100885.41
2022-08-20T01:07:50.657Z,100880.91
2022-08-20T01:10:47.078Z,100891.34
2022-08-20T01:13:41.555Z,100888.88
2022-08-20T01:16:33.071Z,100889.78
2022-08-20T01:19:31.415Z,100890.19
2022-08-20T01:23:14.487Z,100890.19
2022-08-20T01:26:29.456Z,100898.53
2022-08-20T01:29:26.134Z,100905.06
2022-08-20T01:32:15.465Z,100914.91
2022-08-20T01:35:06.975Z,100917.38
2022-08-20T01:37:56.683Z,100903.88
2022-08-20T01:41:28.902Z,100894.53
2022-08-20T01:44:19.729Z,100911.16
2022-08-20T01:47:22.563Z,100907.44
2022-08-20T01:50:20.048Z,100902.41
2022-08-20T01:53:31.628Z,100908.72
2022-08-20T01:56:27.128Z,100916.19
2022-08-20T01:59:17.758Z,100907.03
2022-08-20T02:02:08.412Z,100910.78
2022-08-20T02:05:02.206Z,100919.53
2022-08-20T02:07:52.009Z,100913.47
2022-08-20T02:10:42.229Z,100907.84
2022-08-20T02:13:32.194Z,100915.97
2022-08-20T02:16:30.677Z,100917.47
2022-08-20T02:19:36.026Z,100922.88
2022-08-20T02:22:50.163Z,100906.72
2022-08-20T02:25:41.976Z,100901.06
2022-08-20T02:28:31.544Z,100894.63
2022-08-20T02:31:22.576Z,100893.94
2022-08-20T02:34:22.414Z,100890.50
2022-08-20T02:37:17.731Z,100888.25
2022-08-20T02:40:09.486Z,100890.56
2022-08-20T02:43:00.938Z,100883.47
2022-08-20T02:45:50.906Z,100885.59
2022-08-20T02:48:41.758Z,100892.25
2022-08-20T02:51:31.891Z,100891.84
2022-08-20T02:54:21.626Z,100890.66
2022-08-20T02:57:16.135Z,100887.41
2022-08-20T03:00:13.341Z,100882.88
2022-08-20T03:03:03.842Z,100885.03
2022-08-20T03:05:55.941Z,100875.88
2022-08-20T03:08:46.702Z,100866.72
2022-08-20T03:11:38.400Z,100861.78
2022-08-20T03:14:29.850Z,100859.09
2022-08-20T03:17:22.115Z,100855.56
2022-08-20T03:20:12.670Z,100852.69
2022-08-20T03:23:02.757Z,100851.03
2022-08-20T03:25:52.565Z,100853.16
2022-08-20T03:28:43.021Z,100835.28
2022-08-20T03:31:32.464Z,100825.72
2022-08-20T03:34:22.435Z,100835.34
2022-08-20T03:37:13.035Z,100840.41
2022-08-20T03:40:03.955Z,100838.72
2022-08-20T03:42:54.137Z,100832.47
2022-08-20T03:45:46.106Z,100837.50
2022-08-20T03:48:37.173Z,100814.16
2022-08-20T03:51:27.366Z,100812.47
2022-08-20T03:54:17.106Z,100799.75
2022-08-20T03:57:12.474Z,100792.88
2022-08-20T04:00:03.507Z,100774.56
2022-08-20T04:03:02.140Z,100790.34
2022-08-20T04:05:53.244Z,100780.34
2022-08-20T04:08:43.811Z,100778.69
2022-08-20T04:11:34.855Z,100780.34
2022-08-20T04:14:25.008Z,100779.31
2022-08-20T04:17:20.877Z,100758.69
2022-08-20T04:20:14.857Z,100752.88
2022-08-20T04:23:05.494Z,100735.34
2022-08-20T04:25:56.478Z,100750.78
2022-08-20T04:28:47.196Z,100753.28
2022-08-20T04:31:36.941Z,100754.75
2022-08-20T04:34:27.581Z,100731.16
2022-08-20T04:37:20.516Z,100720.31
2022-08-20T04:40:32.729Z,100706.78
2022-08-20T04:43:25.829Z,100721.19
2022-08-20T04:46:15.985Z,100727.59
2022-08-20T04:49:08.155Z,100727.00
2022-08-20T04:51:58.108Z,100708.00
2022-08-20T04:54:49.013Z,100700.53
2022-08-20T04:57:39.869Z,100702.63
2022-08-20T05:00:30.346Z,100695.50
2022-08-20T05:03:21.062Z,100699.47
2022-08-20T05:06:12.664Z,100695.13
2022-08-20T05:09:03.300Z,100700.31
2022-08-20T05:11:52.688Z,100694.84
2022-08-20T05:14:42.151Z,100691.94
2022-08-20T05:17:32.045Z,100697.13
2022-08-20T05:20:22.059Z,100705.88
2022-08-20T05:23:13.975Z,100711.09
2022-08-20T05:26:08.849Z,100722.50
2022-08-20T05:28:59.475Z,100717.28
2022-08-20T05:31:49.866Z,100720.97
2022-08-20T05:34:39.981Z,100715.13
2022-08-20T05:37:32.863Z,100721.50
2022-08-20T05:40:24.331Z,100723.75
2022-08-20T05:43:15.214Z,100717.84
2022-08-20T05:46:04.326Z,100721.75
2022-08-20T05:48:54.578Z,100715.59
2022-08-20T05:51:44.637Z,100703.03
2022-08-20T05:54:35.434Z,100700.47
2022-08-20T05:57:26.032Z,100701.66
2022-08-20T06:00:16.860Z,100692.84
2022-08-20T06:03:25.942Z,100693.63
2022-08-20T06:06:32.208Z,100660.09
2022-08-20T06:09:27.982Z,100633.31
2022-08-20T06:12:24.452Z,100638.09
2022-08-20T06:15:14.598Z,100640.38
2022-08-20T06:18:27.999Z,100646.59
2022-08-20T06:21:19.222Z,100641.84
2022-08-20T06:24:11.109Z,100650.31
2022-08-20T06:27:03.160Z,100653.66
2022-08-20T06:29:52.930Z,100663.19
2022-08-20T06:32:42.596Z,100672.31
2022-08-20T06:35:32.223Z,100671.94
2022-08-20T06:38:22.969Z,100679.41
2022-08-20T06:41:12.507Z,100679.00
2022-08-20T06:44:05.983Z,100667.38
2022-08-20T06:46:57.650Z,100674.25
2022-08-20T06:49:48.942Z,100663.66
2022-08-20T06:52:52.730Z,100669.47
2022-08-20T06:55:48.102Z,100669.94
2022-08-20T06:58:39.146Z,100677.84
2022-08-20T07:01:28.697Z,100679.50
2022-08-20T07:04:18.392Z,100678.09
2022-08-20T07:07:08.641Z,100669.97
2022-08-20T07:10:07.668Z,100657.38
2022-08-20T07:12:58.368Z,100661.75
2022-08-20T07:15:48.117Z,100656.34
2022-08-20T07:18:42.851Z,100646.56
2022-08-20T07:21:32.112Z,100643.88
2022-08-20T07:24:22.311Z,100651.34
2022-08-20T07:27:12.277Z,100636.81
2022-08-20T07:30:20.235Z,100640.34
2022-08-20T07:33:12.643Z,100637.25
2022-08-20T07:36:05.641Z,100639.31
2022-08-20T07:38:56.970Z,100623.09
2022-08-20T07:42:04.189Z,100623.94
2022-08-20T07:44:54.207Z,100620.59
2022-08-20T07:47:45.500Z,100622.25
2022-08-20T07:50:37.891Z,100628.91
2022-08-20T07:53:32.292Z,100629.72
2022-08-20T07:56:25.998Z,100635.34
2022-08-20T07:59:20.103Z,100642.19
2022-08-20T08:02:09.786Z,100642.19
2022-08-20T08:05:01.011Z,100644.50
2022-08-20T08:07:50.979Z,100650.94
2022-08-20T08:10:43.377Z,100637.25
2022-08-20T08:13:48.948Z,100647.22
2022-08-20T08:16:39.416Z,100641.81
2022-08-20T08:19:37.615Z,100636.22
2022-08-20T08:22:27.472Z,100632.09
2022-08-20T08:25:18.479Z,100636.47
2022-08-20T08:28:08.155Z,100634.16
2022-08-20T08:31:01.079Z,100639.06
2022-08-20T08:33:51.534Z,100636.56
2022-08-20T08:36:41.905Z,100642.16
2022-08-20T08:39:35.130Z,100641.97
2022-08-20T08:42:33.853Z,100622.66
2022-08-20T08:45:23.790Z,100615.56
2022-08-20T08:48:18.404Z,100614.16
2022-08-20T08:51:14.046Z,100612.09
2022-08-20T08:54:06.964Z,100615.63
2022-08-20T08:56:57.818Z,100618.53
2022-08-20T09:00:04.433Z,100623.75
2022-08-20T09:03:03.515Z,100640.13
2022-08-20T09:06:01.179Z,100643.88
2022-08-20T09:08:54.599Z,100641.97
2022-08-20T09:11:54.463Z,100654.66
2022-08-20T09:14:43.854Z,100655.59
2022-08-20T09:17:32.958Z,100661.25
2022-08-20T09:20:26.910Z,100674.56
2022-08-20T09:23:16.985Z,100682.16
2022-08-20T09:26:07.641Z,100673.66
2022-08-20T09:28:58.121Z,100677.63
2022-08-20T09:31:49.195Z,100680.53
2022-08-20T09:34:45.808Z,100687.34
2022-08-20T09:37:37.693Z,100698.81
2022-08-20T09:40:28.378Z,100704.59
2022-08-20T09:43:18.051Z,100711.44
2022-08-20T09:46:08.131Z,100722.25
2022-08-20T09:48:59.265Z,100725.34
2022-08-20T09:51:49.160Z,100731.13
2022-08-20T09:54:39.937Z,100732.50
2022-08-20T09:57:37.330Z,100735.59
2022-08-20T10:00:27.838Z,100741.41
2022-08-20T10:03:18.280Z,100749.72
2022-08-20T10:06:08.733Z,100748.84
2022-08-20T10:08:58.406Z,100749.97
2022-08-20T10:11:48.149Z,100752.53
2022-08-20T10:14:37.894Z,100755.41
2022-08-20T10:17:27.483Z,100757.47
2022-08-20T10:20:19.743Z,100760.81
2022-08-20T10:23:09.353Z,100771.19
2022-08-20T10:26:01.778Z,100791.06
2022-08-20T10:28:51.316Z,100791.34
2022-08-20T10:31:41.570Z,100800.91
2022-08-20T10:34:31.067Z,100801.34
2022-08-20T10:37:23.467Z,100794.91
2022-08-20T10:40:16.805Z,100798.00
2022-08-20T10:43:06.499Z,100789.66
2022-08-20T10:45:56.862Z,100796.09
2022-08-20T10:48:46.963Z,100801.88
2022-08-20T10:51:36.510Z,100807.28
2022-08-20T10:54:26.635Z,100807.66
2022-08-20T10:57:23.116Z,100820.91
2022-08-20T11:00:15.959Z,100821.28
2022-08-20T11:03:05.933Z,100823.31
2022-08-20T11:05:55.844Z,100826.03
2022-08-20T11:08:45.986Z,100826.41
2022-08-20T11:11:35.917Z,100836.56
2022-08-20T11:14:25.935Z,100840.28
2022-08-20T11:17:20.611Z,100842.34
2022-08-20T11:20:12.500Z,100840.28
2022-08-20T11:23:03.657Z,100832.53
2022-08-20T11:25:53.804Z,100832.69
2022-08-20T11:28:44.343Z,100835.41
2022-08-20T11:31:34.122Z,100838.94
2022-08-20T11:34:23.612Z,100839.34
2022-08-20T11:37:15.487Z,100850.94
2022-08-20T11:40:06.584Z,100855.53
2022-08-20T11:46:07.194Z,100851.44
2022-08-20T11:48:57.870Z,100853.13
2022-08-20T11:51:49.220Z,100852.75
2022-08-20T11:54:41.939Z,100856.66
2022-08-20T11:57:34.219Z,100861.88
2022-08-20T12:00:32.172Z,100867.47
2022-08-20T12:03:23.077Z,100863.81
2022-08-20T12:06:12.958Z,100862.50
2022-08-20T12:09:03.679Z,100877.28
2022-08-20T12:11:52.828Z,100880.19
2022-08-20T12:14:43.474Z,100880.84
2022-08-20T12:17:34.182Z,100888.94
2022-08-20T12:20:25.881Z,100893.31
2022-08-20T12:23:16.428Z,100898.25
2022-08-20T12:26:06.048Z,100896.56
2022-08-20T12:28:58.472Z,100904.78
2022-08-20T12:31:48.072Z,100909.34
2022-08-20T12:34:42.162Z,100923.34
2022-08-20T12:37:32.954Z,100921.94
2022-08-20T12:40:31.788Z,100934.13
2022-08-20T12:43:25.028Z,100939.22
2022-08-20T12:46:15.086Z,100936.31
2022-08-20T12:49:05.719Z,100937.81
2022-08-20T12:51:56.636Z,100933.44
2022-08-20T12:54:47.003Z,100934.41
2022-08-20T12:57:40.263Z,100928.63
2022-08-20T13:00:43.095Z,100929.44
2022-08-20T13:03:33.095Z,100915.50
2022-08-20T13:06:32.405Z,100927.59
2022-08-20T13:09:22.368Z,100926.31
2022-08-20T13:12:14.969Z,100922.75
2022-08-20T13:15:04.491Z,100926.69
2022-08-20T13:17:56.820Z,100920.44
2022-08-20T13:20:46.769Z,100927.94
2022-08-20T13:23:39.994Z,100930.56
2022-08-20T13:26:29.725Z,100934.28
2022-08-20T13:29:20.778Z,100936.78
2022-08-20T13:32:11.999Z,100934.28
2022-08-20T13:35:02.321Z,100930.94
2022-08-20T13:37:52.432Z,100947.50
2022-08-20T13:40:42.391Z,100944.59
2022-08-20T13:43:32.636Z,100941.34
2022-08-20T13:46:23.600Z,100941.63
2022-08-20T13:49:13.851Z,100939.53
2022-08-20T13:52:04.853Z,100944.03
2022-08-20T13:54:55.073Z,100943.53
2022-08-20T13:57:45.475Z,100949.44
2022-08-20T14:00:36.179Z,100949.31
2022-08-20T14:03:26.089Z,100953.69
2022-08-20T14:06:17.367Z,100951.31
2022-08-20T14:09:07.496Z,100954.84
2022-08-20T14:11:56.537Z,100957.41
2022-08-20T14:14:46.718Z,100959.78
2022-08-20T14:17:42.004Z,100958.13
2022-08-20T14:20:33.642Z,100950.66
2022-08-20T14:23:23.641Z,100953.53
2022-08-20T14:26:13.672Z,100952.72
2022-08-20T14:29:04.623Z,100963.22
2022-08-20T14:31:57.641Z,100972.06
2022-08-20T14:34:47.399Z,100971.50
2022-08-20T14:37:59.071Z,100975.22
2022-08-20T14:40:51.517Z,100976.41
2022-08-20T14:43:40.761Z,100983.03
2022-08-20T14:46:30.274Z,100974.19
2022-08-20T14:49:20.606Z,100960.50
2022-08-20T14:52:10.962Z,100954.81
2022-08-20T14:55:02.686Z,100943.34
2022-08-20T14:57:53.149Z,100927.53
2022-08-20T15:00:43.356Z,100930.81
2022-08-20T15:03:33.251Z,100919.50
2022-08-20T15:06:23.491Z,100909.06
2022-08-20T15:09:15.148Z,100898.63
2022-08-20T15:12:05.546Z,100898.84
2022-08-20T15:14:54.899Z,100889.44
2022-08-20T15:17:54.969Z,100879.84
2022-08-20T15:20:44.841Z,100877.50
2022-08-20T15:23:34.493Z,100883.34
2022-08-20T15:26:24.039Z,100866.34
2022-08-20T15:29:18.397Z,100857.97
2022-08-20T15:32:13.337Z,100851.72
2022-08-20T15:35:02.936Z,100850.75
2022-08-20T15:37:54.702Z,100845.38
2022-08-20T15:40:44.382Z,100842.03
2022-08-20T15:43:34.468Z,100842.22
2022-08-20T15:46:27.769Z,100842.41
2022-08-20T15:49:20.173Z,100832.00
2022-08-20T15:52:09.920Z,100826.59
2022-08-20T15:54:59.603Z,100814.97
2022-08-20T15:58:17.890Z,100815.81
2022-08-20T16:01:33.716Z,100812.44
2022-08-20T16:05:00.528Z,100813.28
2022-08-20T16:08:05.357Z,100814.47
2022-08-20T16:11:06.457Z,100813.22
2022-08-20T16:14:15.620Z,100811.97
2022-08-20T16:17:15.987Z,100816.09
2022-08-20T16:20:15.781Z,100808.25
2022-08-20T16:23:05.936Z,100817.53
2022-08-20T16:26:01.208Z,100816.34
2022-08-20T16:29:13.780Z,100812.81
2022-08-20T16:32:30.018Z,100808.00
2022-08-20T16:35:29.584Z,100802.78
2022-08-20T16:38:43.036Z,100805.47
2022-08-20T16:41:41.684Z,100798.75
2022-08-20T16:44:49.285Z,100796.06
2022-08-20T16:47:42.073Z,100793.06
2022-08-20T16:50:33.697Z,100788.69
2022-08-20T16:53:25.082Z,100792.34
2022-08-20T16:56:14.743Z,100800.78
2022-08-20T16:59:07.721Z,100783.66
2022-08-20T17:02:10.857Z,100781.97
2022-08-20T17:05:06.543Z,100779.97
2022-08-20T17:08:08.434Z,100772.53
2022-08-20T17:11:02.631Z,100767.16
2022-08-20T17:13:55.235Z,100770.03
2022-08-20T17:16:51.293Z,100765.13
2022-08-20T17:19:40.596Z,100760.28
2022-08-20T17:22:32.455Z,100754.06
2022-08-20T17:25:32.588Z,100754.34
2022-08-20T17:28:31.998Z,100756.75
2022-08-20T17:31:43.415Z,100747.66
2022-08-20T17:34:45.733Z,100751.38
2022-08-20T17:37:40.701Z,100743.63
2022-08-20T17:40:41.417Z,100751.72
2022-08-20T17:43:33.795Z,100758.31
2022-08-20T17:46:24.161Z,100762.38
2022-08-20T17:49:19.817Z,100757.44
2022-08-20T17:52:18.717Z,100752.97
2022-08-20T17:55:09.577Z,100755.66
2022-08-20T17:58:02.243Z,100755.66
2022-08-20T18:00:51.644Z,100749.06
2022-08-20T18:03:41.744Z,100756.47
2022-08-20T18:06:40.913Z,100741.19
2022-08-20T18:10:03.730Z,100741.19
2022-08-20T18:13:05.348Z,100734.94
2022-08-20T18:16:00.002Z,100738.00
2022-08-20T18:18:56.927Z,100731.13
2022-08-20T18:22:05.897Z,100737.34
2022-08-20T18:24:59.224Z,100747.28
2022-08-20T18:27:50.731Z,100732.97
2022-08-20T18:30:50.737Z,100729.25
2022-08-20T18:33:45.262Z,100732.66
2022-08-20T18:36:36.315Z,100740.75
2022-08-20T18:39:31.171Z,100740.38
2022-08-20T18:42:39.713Z,100728.59
2022-08-20T18:45:38.247Z,100737.22
2022-08-20T18:48:27.792Z,100725.25
2022-08-20T18:51:17.625Z,100725.97
2022-08-20T18:54:08.108Z,100729.31
2022-08-20T18:57:06.525Z,100719.56
2022-08-20T19:00:12.962Z,100719.22
2022-08-20T19:03:35.924Z,100708.63
2022-08-20T19:06:35.466Z,100707.97
2022-08-20T19:09:37.540Z,100710.16
2022-08-20T19:13:18.904Z,100708.63
2022-08-20T19:16:12.212Z,100711.03
2022-08-20T19:19:02.102Z,100706.81
2022-08-20T19:21:53.210Z,100704.13
2022-08-20T19:24:45.723Z,100701.44
2022-08-20T19:27:35.299Z,100701.44
2022-08-20T19:30:39.697Z,100692.69
2022-08-20T19:33:32.752Z,100689.19
2022-08-20T19:36:35.010Z,100691.34
2022-08-20T19:39:25.823Z,100687.31
2022-08-20T19:42:29.729Z,100692.00
2022-08-20T19:45:39.285Z,100694.69
2022-08-20T19:48:50.047Z,100690.03
2022-08-20T19:51:58.040Z,100682.63
2022-08-20T19:55:03.347Z,100680.94
2022-08-20T19:57:56.554Z,100682.81
2022-08-20T20:00:50.152Z,100686.69
2022-08-20T20:03:40.103Z,100693.09
2022-08-20T20:06:31.624Z,100690.41
2022-08-20T20:09:28.465Z,100699.09
2022-08-20T20:12:22.807Z,100697.63
2022-08-20T20:15:12.985Z,100694.13
2022-08-20T20:18:02.460Z,100702.19
2022-08-20T20:20:58.404Z,100714.63
2022-08-20T20:23:59.068Z,100712.56
2022-08-20T20:26:50.127Z,100706.56
2022-08-20T20:29:39.719Z,100711.28
2022-08-20T20:32:30.168Z,100725.53
2022-08-20T20:35:36.428Z,100712.28
2022-08-20T20:38:28.881Z,100718.00
2022-08-20T20:41:27.028Z,100721.38
2022-08-20T20:44:23.905Z,100716.34
2022-08-20T20:47:35.905Z,100717.16
2022-08-20T20:50:35.960Z,100710.94
2022-08-20T20:53:51.196Z,100718.00
2022-08-20T20:56:44.738Z,100727.09
2022-08-20T20:59:37.372Z,100726.25
2022-08-20T21:02:26.689Z,100725.41
2022-08-20T21:05:17.893Z,100733.47
2022-08-20T21:08:10.510Z,100731.63
2022-08-20T21:11:00.353Z,100724.41
2022-08-20T21:13:50.123Z,100720.03
2022-08-20T21:16:39.858Z,100722.06
2022-08-20T21:19:30.302Z,100726.59
2022-08-20T21:22:22.729Z,100726.94
2022-08-20T21:25:12.661Z,100727.13
2022-08-20T21:28:03.018Z,100723.59
2022-08-20T21:30:58.417Z,100726.94
2022-08-20T21:33:48.223Z,100724.59
2022-08-20T21:36:37.481Z,100725.78
2022-08-20T21:39:27.429Z,100731.50
2022-08-20T21:42:28.956Z,100728.13
2022-08-20T21:45:20.004Z,100729.81
2022-08-20T21:48:09.235Z,100731.84
2022-08-20T21:50:58.878Z,100735.19
2022-08-20T21:53:48.459Z,100737.38
2022-08-20T21:56:39.036Z,100734.69
2022-08-20T21:59:28.479Z,100730.50
2022-08-20T22:02:19.439Z,100732.19
2022-08-20T22:05:09.191Z,100730.31
2022-08-20T22:07:58.839Z,100726.81
2022-08-20T22:10:48.879Z,100734.22
2022-08-20T22:13:39.632Z,100730.50
2022-08-20T22:16:29.223Z,100737.72
2022-08-20T22:19:18.975Z,100738.91
2022-08-20T22:22:12.045Z,100745.31
2022-08-20T22:25:05.115Z,100740.59
2022-08-20T22:27:59.869Z,100745.78
2022-08-20T22:30:49.723Z,100742.44
2022-08-20T22:33:40.563Z,100750.34
2022-08-20T22:36:31.414Z,100749.50
2022-08-20T22:39:23.522Z,100756.06
2022-08-20T22:42:16.333Z,100761.91
2022-08-20T22:45:14.541Z,100762.78
2022-08-20T22:48:05.169Z,100772.69
2022-08-20T22:50:55.613Z,100776.22
2022-08-20T22:53:46.840Z,100775.56
2022-08-20T22:56:36.261Z,100778.91
2022-08-20T22:59:26.506Z,100785.31
2022-08-20T23:02:20.349Z,100785.97
2022-08-20T23:05:14.471Z,100803.78
2022-08-20T23:08:04.500Z,100812.84
2022-08-20T23:10:54.304Z,100813.53
2022-08-20T23:13:44.256Z,100823.28
2022-08-20T23:16:34.710Z,100825.44
2022-08-20T23:19:25.084Z,100819.22
2022-08-20T23:22:15.028Z,100824.41
2022-08-20T23:25:07.218Z,100828.47
2022-08-20T23:28:04.227Z,100822.06
2022-08-20T23:30:54.567Z,100813.50
2022-08-20T23:33:44.945Z,100819.34
2022-08-20T23:36:35.393Z,100821.53
2022-08-20T23:39:26.012Z,100817.47
2022-08-20T23:42:16.442Z,100819.88
2022-08-20T23:45:07.297Z,100814.78
2022-08-20T23:47:57.160Z,100809.03
2022-08-20T23:50:46.736Z,100806.28
2022-08-20T23:53:39.197Z,100810.47
2022-08-20T23:56:28.664Z,100810.47
2022-08-20T23:59:17.775Z,100812.63
